Time;durP1;ratioP1;P1;durP2;ratioP2;P2;SDS_P1;SDS_P2;PMS_P1;PMS_P2;Temp;Humidity;BMP_temperature;BMP_pressure;BME280_temperature;BME280_humidity;BME280_pressure;Samples;Min_cycle;Max_cycle;Signal;HPM_P1;HPM_P2
2022/01/05 00:00:19;;;;;;;10.73;2.93;;;;;;;-144.19;100.00;76402.06;5036173;28;20053;-89
2022/01/05 00:02:46;;;;;;;12.98;2.45;;;;;;;-144.19;100.00;76409.94;5033441;28;20056;-87
2022/01/05 00:05:12;;;;;;;11.45;2.80;;;;;;;-144.19;100.00;76417.81;5034740;28;20045;-89
2022/01/05 00:07:39;;;;;;;17.33;3.78;;;;;;;-144.19;100.00;76409.94;5033830;28;20610;-88
2022/01/05 00:10:06;;;;;;;7.13;2.20;;;;;;;-144.19;100.00;76421.75;5035328;28;20266;-87
2022/01/05 00:12:32;;;;;;;9.40;1.90;;;;;;;-144.19;100.00;76425.69;5033181;28;20486;-86
2022/01/05 00:15:00;;;;;;;16.92;2.92;;;;;;;-144.19;100.00;76427.66;5034863;28;20055;-86
2022/01/05 00:17:27;;;;;;;;;;;;;;;-144.19;100.00;76433.56;5036776;28;20418;-87
2022/01/05 00:19:54;;;;;;;13.55;2.42;;;;;;;-144.19;100.00;76445.38;5034243;28;19967;-88
2022/01/05 00:22:21;;;;;;;12.95;1.77;;;;;;;-144.19;100.00;76425.69;5033289;28;20419;-88
2022/01/05 00:24:47;;;;;;;10.02;1.90;;;;;;;-144.19;100.00;76419.78;5035352;28;20519;-86
2022/01/05 00:27:13;;;;;;;16.40;2.55;;;;;;;-144.19;100.00;76455.22;5033653;28;20419;-87
2022/01/05 00:29:40;;;;;;;8.45;1.50;;;;;;;-144.19;100.00;76455.22;5033659;28;20064;-90
2022/01/05 00:32:07;;;;;;;6.13;1.90;;;;;;;-144.19;100.00;76459.16;5032849;28;20050;-89
2022/01/05 00:34:34;;;;;;;8.60;2.35;;;;;;;-144.19;100.00;76437.50;5032790;28;20049;-89
2022/01/05 00:37:01;;;;;;;9.10;2.85;;;;;;;-144.19;100.00;76435.53;5034270;28;20049;-87
2022/01/05 00:39:27;;;;;;;7.70;2.30;;;;;;;-144.19;100.00;76417.81;5032875;28;20053;-86
2022/01/05 00:41:54;;;;;;;13.30;3.10;;;;;;;-144.19;100.00;76437.50;5033525;28;20053;-88
2022/01/05 00:44:20;;;;;;;9.80;2.20;;;;;;;-144.19;100.00;76457.19;5032857;28;20054;-89
2022/01/05 00:46:47;;;;;;;9.47;2.20;;;;;;;-144.19;100.00;76411.91;5033557;28;20654;-88
2022/01/05 00:49:13;;;;;;;13.10;2.03;;;;;;;-144.19;100.00;76415.84;5032690;28;20060;-87
2022/01/05 00:51:40;;;;;;;8.27;2.00;;;;;;;-144.19;100.00;76457.19;5032790;28;20049;-88
2022/01/05 00:54:06;;;;;;;5.80;1.80;;;;;;;-144.19;100.00;76461.13;5032660;28;20049;-85
2022/01/05 00:56:33;;;;;;;31.60;4.43;;;;;;;-144.19;100.00;76447.34;5105095;22;20050;-89
2022/01/05 00:58:59;;;;;;;6.73;2.20;;;;;;;-144.19;100.00;76467.03;5094844;28;20134;-89
2022/01/05 01:01:26;;;;;;;10.47;3.30;;;;;;;-144.19;100.00;76465.06;5087973;28;20298;-89
2022/01/05 01:03:53;;;;;;;14.68;2.20;;;;;;;-144.19;100.00;76484.75;5074373;28;20278;-89
2022/01/05 01:06:19;;;;;;;13.50;2.80;;;;;;;-144.19;100.00;76496.53;5058875;28;20047;-88
2022/01/05 01:08:47;;;;;;;14.02;2.58;;;;;;;-144.19;100.00;76480.81;5072539;28;20295;-89
2022/01/05 01:11:13;;;;;;;10.63;2.33;;;;;;;-144.19;100.00;76482.78;5054591;28;20051;-89
2022/01/05 01:13:40;;;;;;;15.50;2.55;;;;;;;-144.19;100.00;76484.75;5054264;28;20052;-89
2022/01/05 01:16:06;;;;;;;10.05;2.53;;;;;;;-144.19;100.00;76451.28;5071851;28;20052;-89
2022/01/05 01:18:35;;;;;;;12.18;3.10;;;;;;;-144.19;100.00;76474.91;5054307;28;20045;-89
2022/01/05 01:21:02;;;;;;;11.10;1.77;;;;;;;-144.19;100.00;76482.78;5054191;28;20052;-88
2022/01/05 01:23:29;;;;;;;11.27;2.38;;;;;;;-144.19;100.00;76490.66;5071674;28;20064;-88
2022/01/05 01:25:55;;;;;;;9.32;2.28;;;;;;;-144.19;100.00;76494.59;5071851;28;20055;-88
2022/01/05 01:28:23;;;;;;;8.57;1.90;;;;;;;-144.19;100.00;76484.75;5071776;28;20044;-88
2022/01/05 01:30:50;;;;;;;10.40;2.22;;;;;;;-144.19;100.00;76494.59;5053509;28;20082;-89
2022/01/05 01:33:18;;;;;;;9.65;2.30;;;;;;;-144.19;100.00;76496.53;5053803;28;20060;-89
2022/01/05 01:35:44;;;;;;;12.07;3.10;;;;;;;-144.19;100.00;76496.53;5053722;28;20494;-87
2022/01/05 01:38:11;;;;;;;10.60;1.83;;;;;;;-144.19;100.00;76469.00;5071493;28;20049;-89
2022/01/05 01:40:37;;;;;;;7.43;1.75;;;;;;;-144.19;100.00;76486.72;5054228;28;20056;-88
2022/01/05 01:43:03;;;;;;;14.77;3.97;;;;;;;-144.19;100.00;76484.75;5053189;28;20044;-88
2022/01/05 01:45:44;;;;;;;9.90;2.63;;;;;;;-144.19;100.00;76484.75;5088393;27;20381;-89
2022/01/05 01:48:11;;;;;;;15.38;3.58;;;;;;;-144.19;100.00;76480.81;5087849;28;20071;-88
2022/01/05 01:50:37;;;;;;;12.68;2.58;;;;;;;-144.19;100.00;76494.59;5087415;28;20417;-89
2022/01/05 01:53:04;;;;;;;9.20;2.45;;;;;;;-144.19;100.00;76512.28;5086901;28;20044;-88
2022/01/05 01:55:30;;;;;;;14.63;2.60;;;;;;;-144.19;100.00;76508.34;5087248;28;20055;-88
2022/01/05 01:57:58;;;;;;;9.07;2.28;;;;;;;-144.19;100.00;76524.09;5108547;22;20291;-86
2022/01/05 02:00:24;;;;;;;10.05;2.40;;;;;;;-144.19;100.00;76543.78;5070108;28;20425;-87
2022/01/05 02:02:51;;;;;;;12.77;2.23;;;;;;;-144.19;100.00;76557.56;5069988;28;20058;-86
2022/01/05 02:05:18;;;;;;;16.88;2.50;;;;;;;-144.19;100.00;76551.66;5070598;28;20071;-89
2022/01/05 02:07:44;;;;;;;13.77;2.58;;;;;;;-144.19;100.00;76547.72;5089185;28;20052;-89
2022/01/05 02:10:11;;;;;;;15.10;4.03;;;;;;;-144.19;100.00;76541.81;5090351;28;20047;-88
2022/01/05 02:12:37;;;;;;;14.60;2.70;;;;;;;-144.19;100.00;76535.91;5107619;28;20663;-87
2022/01/05 02:15:05;;;;;;;12.83;3.17;;;;;;;-144.19;100.00;76541.81;5108701;28;20051;-88
2022/01/05 02:17:48;;;;;;;10.18;2.38;;;;;;;-144.19;100.00;76559.53;5090779;28;20052;-88
2022/01/05 02:20:21;;;;;;;10.10;2.38;;;;;;;-144.19;100.00;76563.47;5108961;28;20048;-87
2022/01/05 02:22:48;;;;;;;11.90;2.50;;;;;;;-144.19;100.00;76535.91;5108939;28;20423;-87
2022/01/05 02:25:15;;;;;;;7.22;2.00;;;;;;;-144.19;100.00;76535.91;5109590;28;20131;-89
2022/01/05 02:27:44;;;;;;;11.82;2.45;;;;;;;-144.19;100.00;76567.41;5090821;28;20047;-86
2022/01/05 02:30:13;;;;;;;15.23;2.20;;;;;;;-144.19;100.00;76520.16;5108095;28;20058;-88
2022/01/05 02:32:39;;;;;;;11.48;2.60;;;;;;;-144.19;100.00;76543.78;5090113;28;20517;-87
2022/01/05 02:35:09;;;;;;;16.20;2.65;;;;;;;-144.19;100.00;76547.72;5091241;28;20130;-88
2022/01/05 02:37:43;;;;;;;8.85;2.63;;;;;;;-144.19;100.00;76528.03;5090315;28;20048;-87
2022/01/05 02:40:11;;;;;;;10.63;2.00;;;;;;;-144.19;100.00;76549.69;5089840;28;20051;-87
2022/01/05 02:42:38;;;;;;;9.88;1.80;;;;;;;-144.19;100.00;76549.69;5090225;28;20524;-89
2022/01/05 02:45:05;;;;;;;9.35;2.60;;;;;;;-144.19;100.00;76559.53;5089516;28;20048;-88
2022/01/05 02:47:31;;;;;;;12.32;3.00;;;;;;;-144.19;100.00;76557.56;5090642;28;20052;-88
2022/01/05 02:49:58;;;;;;;10.77;1.87;;;;;;;-144.19;100.00;76555.59;5089514;28;20052;-89
2022/01/05 02:52:25;;;;;;;12.23;2.88;;;;;;;-144.19;100.00;76547.72;5089407;28;20051;-87
2022/01/05 02:54:52;;;;;;;7.00;1.77;;;;;;;-144.19;100.00;76559.53;5090237;28;20044;-88
2022/01/05 02:57:18;;;;;;;10.90;2.27;;;;;;;-144.19;100.00;76571.34;5093366;28;20043;-88
2022/01/05 02:59:44;;;;;;;14.63;2.75;;;;;;;-144.19;100.00;76571.34;5076012;28;20296;-86
2022/01/05 03:02:11;;;;;;;10.87;2.93;;;;;;;-144.19;100.00;76571.34;5076283;28;20074;-86
2022/01/05 03:04:38;;;;;;;16.85;5.22;;;;;;;-144.19;100.00;76587.09;5076105;28;20298;-87
2022/01/05 03:07:04;;;;;;;14.63;3.63;;;;;;;-144.19;100.00;76557.56;5093861;28;20055;-88
2022/01/05 03:09:30;;;;;;;10.33;2.23;;;;;;;-144.19;100.00;76583.16;5093869;28;20471;-89
2022/01/05 03:11:57;;;;;;;10.48;2.65;;;;;;;-144.19;100.00;76573.31;5075821;28;20333;-86
2022/01/05 03:14:24;;;;;;;12.33;3.80;;;;;;;-144.19;100.00;76563.47;5075529;28;20508;-88
2022/01/05 03:16:50;;;;;;;10.33;2.93;;;;;;;-144.19;100.00;76571.34;5076532;28;20059;-90
2022/01/05 03:19:16;;;;;;;11.52;2.40;;;;;;;-144.19;100.00;76563.47;5076558;28;20063;-88
2022/01/05 03:21:43;;;;;;;11.47;1.90;;;;;;;-144.19;100.00;76561.50;5076886;28;20051;-90
2022/01/05 03:24:09;;;;;;;13.80;2.75;;;;;;;-144.19;100.00;76569.38;5075990;28;20040;-86
2022/01/05 03:26:36;;;;;;;14.82;2.95;;;;;;;-144.19;100.00;76569.38;5094519;28;20052;-87
2022/01/05 03:29:02;;;;;;;9.83;2.10;;;;;;;-144.19;100.00;76577.25;5078005;28;20052;-87
2022/01/05 03:31:28;;;;;;;9.77;2.28;;;;;;;-144.19;100.00;76575.28;5075394;28;20305;-87
2022/01/05 03:33:55;;;;;;;11.32;2.90;;;;;;;-144.19;100.00;76583.16;5076074;28;20048;-87
2022/01/05 03:36:22;;;;;;;11.38;2.85;;;;;;;-144.19;100.00;76594.97;5076890;28;20048;-89
2022/01/05 03:38:48;;;;;;;10.85;2.60;;;;;;;-144.19;100.00;76598.91;5075332;28;20502;-87
2022/01/05 03:41:15;;;;;;;10.75;2.28;;;;;;;-144.19;100.00;76608.75;5077922;28;20448;-88
2022/01/05 03:43:41;;;;;;;10.83;2.33;;;;;;;-144.19;100.00;76624.50;5075421;28;20044;-88
2022/01/05 03:46:08;;;;;;;12.05;2.33;;;;;;;-144.19;100.00;76602.84;5076559;28;20414;-89
2022/01/05 03:48:34;;;;;;;12.43;2.90;;;;;;;-144.19;100.00;76596.94;5092909;28;20056;-87
2022/01/05 03:51:01;;;;;;;13.63;2.97;;;;;;;-144.19;100.00;76602.84;5075246;28;20052;-87
2022/01/05 03:53:27;;;;;;;10.90;2.80;;;;;;;-144.19;100.00;76610.72;5076216;28;20050;-86
2022/01/05 03:55:53;;;;;;;9.63;2.28;;;;;;;-144.19;100.00;76614.66;5076700;28;20048;-87
2022/01/05 03:58:20;;;;;;;9.13;1.98;;;;;;;-144.19;100.00;76600.88;5074702;28;20052;-89
2022/01/05 04:00:49;;;;;;;12.70;2.47;;;;;;;-144.19;100.00;76606.78;5076879;28;20048;-87
2022/01/05 04:03:17;;;;;;;11.23;2.58;;;;;;;-144.19;100.00;76591.03;5093529;28;20294;-88
2022/01/05 04:05:43;;;;;;;9.48;2.22;;;;;;;-144.19;100.00;76598.91;5076470;28;20048;-87
2022/01/05 04:08:11;;;;;;;10.90;2.55;;;;;;;-144.19;100.00;76612.69;5074056;28;20137;-87
2022/01/05 04:10:37;;;;;;;13.05;2.78;;;;;;;-144.19;100.00;76606.78;5076221;28;20069;-87
2022/01/05 04:13:03;;;;;;;9.40;3.22;;;;;;;-144.19;100.00;76642.22;5093503;28;20059;-85
2022/01/05 04:15:30;;;;;;;6.80;1.95;;;;;;;-144.19;100.00;76634.34;5075863;28;20514;-88
2022/01/05 04:17:57;;;;;;;13.68;2.78;;;;;;;-144.19;100.00;76642.22;5076845;28;20131;-88
2022/01/05 04:20:24;;;;;;;9.40;2.28;;;;;;;-144.19;100.00;76636.31;5094553;28;20055;-86
2022/01/05 04:22:50;;;;;;;19.55;3.92;;;;;;;-144.19;100.00;76638.28;5075914;28;20058;-88
2022/01/05 04:25:16;;;;;;;12.18;2.65;;;;;;;-144.19;100.00;76618.59;5075280;28;20044;-88
2022/01/05 04:27:43;;;;;;;11.35;3.15;;;;;;;-144.19;100.00;76634.34;5076478;28;20157;-88
2022/01/05 04:30:11;;;;;;;14.57;3.80;;;;;;;-144.19;100.00;76644.19;5075160;28;20054;-89
2022/01/05 04:32:39;;;;;;;13.35;3.03;;;;;;;-144.19;100.00;76646.16;5075796;28;20285;-88
2022/01/05 04:35:25;;;;;;;13.80;2.23;;;;;;;-144.19;100.00;76650.09;5079106;28;20048;-88
2022/01/05 04:37:53;;;;;;;8.82;2.35;;;;;;;-144.19;100.00;76634.34;5095294;28;20044;-88
2022/01/05 04:40:20;;;;;;;9.93;3.50;;;;;;;-144.19;100.00;76634.34;5075519;28;20494;-87
2022/01/05 04:42:46;;;;;;;8.63;1.77;;;;;;;-144.19;100.00;76610.72;5074475;28;20074;-88
2022/01/05 04:45:12;;;;;;;10.47;2.30;;;;;;;-144.19;100.00;76610.72;5093982;28;20409;-86
2022/01/05 04:47:39;;;;;;;9.65;2.25;;;;;;;-144.19;100.00;76594.97;5094019;28;20286;-88
2022/01/05 04:50:06;;;;;;;18.20;3.93;;;;;;;-144.19;100.00;76606.78;5075574;28;20054;-86
2022/01/05 04:52:33;;;;;;;14.52;3.22;;;;;;;-144.19;100.00;76614.66;5076080;28;20675;-87
2022/01/05 04:54:59;;;;;;;13.45;2.30;;;;;;;-144.19;100.00;76612.69;5075742;28;20044;-87
2022/01/05 04:57:25;;;;;;;15.53;4.17;;;;;;;-144.19;100.00;76636.31;5075290;28;20055;-89
2022/01/05 04:59:52;;;;;;;10.13;2.73;;;;;;;-144.19;100.00;76642.22;5077919;28;20278;-87
2022/01/05 05:02:18;;;;;;;9.93;2.77;;;;;;;-144.19;100.00;76630.41;5075883;28;20052;-89
2022/01/05 05:04:49;;;;;;;17.23;4.97;;;;;;;-144.19;100.00;76640.25;5075610;28;20302;-88
2022/01/05 05:07:16;;;;;;;12.23;3.63;;;;;;;-144.19;100.00;76652.06;5074889;28;20051;-87
2022/01/05 05:09:42;;;;;;;16.00;3.97;;;;;;;-144.19;100.00;76638.28;5075417;28;20067;-88
2022/01/05 05:12:09;;;;;;;14.70;3.00;;;;;;;-144.19;100.00;76632.38;5076222;28;20052;-89
2022/01/05 05:14:36;;;;;;;10.27;2.42;;;;;;;-144.19;100.00;76622.53;5074615;28;20048;-86
2022/01/05 05:17:04;;;;;;;10.82;3.38;;;;;;;-144.19;100.00;76630.41;5074108;28;20052;-88
2022/01/05 05:19:31;;;;;;;11.05;2.40;;;;;;;-144.19;100.00;76652.06;5075615;28;20059;-88
2022/01/05 05:21:58;;;;;;;10.77;3.20;;;;;;;-144.19;100.00;76630.41;5075499;28;20048;-86
2022/01/05 05:24:24;;;;;;;15.18;4.18;;;;;;;-144.19;100.00;76634.34;5093754;28;20055;-87
2022/01/05 05:26:51;;;;;;;15.53;3.20;;;;;;;-144.19;100.00;76618.59;5074602;28;20058;-88
2022/01/05 05:29:17;;;;;;;10.55;3.72;;;;;;;-144.19;100.00;76626.47;5093657;28;20067;-87
2022/01/05 05:31:43;;;;;;;13.60;4.07;;;;;;;-144.19;100.00;76638.28;5075144;28;20048;-87
2022/01/05 05:34:10;;;;;;;18.38;3.88;;;;;;;-144.19;100.00;76624.50;5074085;28;20326;-87
2022/01/05 05:36:36;;;;;;;20.70;7.67;;;;;;;-144.19;100.00;76632.38;5075356;28;20048;-89
2022/01/05 05:39:03;;;;;;;17.30;4.35;;;;;;;-144.19;100.00;76654.03;5076335;28;20275;-89
2022/01/05 05:41:29;;;;;;;14.07;3.83;;;;;;;-144.19;100.00;76657.97;5075073;28;20454;-87
2022/01/05 05:43:56;;;;;;;9.27;2.43;;;;;;;-144.19;100.00;76650.09;5074495;28;20296;-87
2022/01/05 05:46:22;;;;;;;12.80;3.37;;;;;;;-144.19;100.00;76646.16;5074049;28;20052;-89
2022/01/05 05:48:48;;;;;;;5.90;2.50;;;;;;;-144.19;100.00;76632.38;5075289;28;20282;-89
2022/01/05 05:51:15;;;;;;;12.40;3.08;;;;;;;-144.19;100.00;76634.34;5092692;28;20056;-88
2022/01/05 05:53:41;;;;;;;15.13;2.88;;;;;;;-144.19;100.00;76659.94;5076052;28;20055;-88
2022/01/05 05:56:08;;;;;;;12.80;3.77;;;;;;;-144.19;100.00;76642.22;5064754;28;20045;-86
2022/01/05 05:58:34;;;;;;;12.98;2.85;;;;;;;-144.19;100.00;76638.28;5073161;28;20418;-89
2022/01/05 06:01:01;;;;;;;10.52;2.63;;;;;;;-144.19;100.00;76638.28;5076052;28;20402;-87
2022/01/05 06:03:27;;;;;;;17.25;3.53;;;;;;;-144.19;100.00;76612.69;5075811;28;20113;-88
2022/01/05 06:05:54;;;;;;;12.95;3.10;;;;;;;-144.19;100.00;76626.47;5075183;28;20074;-88
2022/01/05 06:08:20;;;;;;;15.37;3.90;;;;;;;-144.19;100.00;76606.78;5075121;28;20054;-87
2022/01/05 06:10:47;;;;;;;12.83;2.70;;;;;;;-144.19;100.00;76626.47;5075348;28;20668;-87
2022/01/05 06:13:13;;;;;;;17.15;4.50;;;;;;;-144.19;100.00;76640.25;5074139;28;20052;-88
2022/01/05 06:15:39;;;;;;;15.97;2.90;;;;;;;-144.19;100.00;76630.41;5074879;28;20044;-88
2022/01/05 06:18:06;;;;;;;14.37;5.10;;;;;;;-144.19;100.00;76606.78;5094360;28;20288;-90
2022/01/05 06:20:32;;;;;;;19.67;5.90;;;;;;;-144.19;100.00;76630.41;5075341;28;20052;-88
2022/01/05 06:22:58;;;;;;;10.00;2.40;;;;;;;-144.19;100.00;76624.50;5075837;28;20775;-89
2022/01/05 06:25:25;;;;;;;17.60;2.80;;;;;;;-144.19;100.00;76620.56;5073792;28;20306;-86
2022/01/05 06:27:51;;;;;;;20.40;4.50;;;;;;;-144.19;100.00;76612.69;5075463;28;20051;-86
2022/01/05 06:30:22;;;;;;;16.15;3.50;;;;;;;-144.19;100.00;76624.50;5074641;28;20297;-89
2022/01/05 06:32:48;;;;;;;15.00;6.18;;;;;;;-144.19;100.00;76606.78;5080019;28;20058;-90
2022/01/05 06:35:16;;;;;;;19.48;4.20;;;;;;;-144.19;100.00;76622.53;5080120;28;20087;-89
2022/01/05 06:37:42;;;;;;;;;;;;;;;-144.19;100.00;76614.66;5078255;28;20055;-85
2022/01/05 06:40:11;;;;;;;11.80;3.30;;;;;;;-144.19;100.00;76618.59;5078928;28;19926;-88
2022/01/05 06:42:37;;;;;;;14.82;3.30;;;;;;;-144.19;100.00;76618.59;5079184;28;20079;-87
2022/01/05 06:45:04;;;;;;;13.05;3.10;;;;;;;-144.19;100.00;76614.66;5097611;28;20048;-87
2022/01/05 06:47:30;;;;;;;15.32;2.97;;;;;;;-144.19;100.00;76612.69;5078732;28;20048;-88
2022/01/05 06:49:57;;;;;;;12.45;3.50;;;;;;;-144.19;100.00;76614.66;5097745;28;20058;-88
2022/01/05 06:52:26;;;;;;;14.05;4.28;;;;;;;-144.19;100.00;76614.66;5097693;28;20052;-89
2022/01/05 06:54:53;;;;;;;15.00;3.88;;;;;;;-144.19;100.00;76602.84;5078803;28;20048;-88
2022/01/05 06:57:19;;;;;;;18.40;4.10;;;;;;;-144.19;100.00;76604.81;5076210;28;20509;-87
2022/01/05 06:59:45;;;;;;;18.45;3.67;;;;;;;-144.19;100.00;76602.84;5074107;28;20056;-88
2022/01/05 07:02:12;;;;;;;17.33;5.15;;;;;;;-144.19;100.00;76610.72;5078305;28;20048;-85
2022/01/05 07:04:38;;;;;;;18.30;4.65;;;;;;;-144.19;100.00;76606.78;5080636;28;20421;-89
2022/01/05 07:07:05;;;;;;;12.73;3.40;;;;;;;-144.19;100.00;76618.59;5096416;28;20145;-87
2022/01/05 07:09:31;;;;;;;19.10;4.68;;;;;;;-144.19;100.00;76642.22;5079014;28;20123;-87
2022/01/05 07:11:58;;;;;;;16.58;4.78;;;;;;;-144.19;100.00;76622.53;5078266;28;20058;-87
2022/01/05 07:14:26;;;;;;;20.83;5.95;;;;;;;-144.19;100.00;76638.28;5096127;28;20060;-89
2022/01/05 07:16:52;;;;;;;13.75;3.30;;;;;;;-144.19;100.00;76646.16;5078365;28;20498;-86
2022/01/05 07:19:20;;;;;;;13.67;4.13;;;;;;;-144.19;100.00;76638.28;5078892;28;20048;-86
2022/01/05 07:21:47;;;;;;;17.27;5.68;;;;;;;-144.19;100.00;76642.22;5079028;28;20279;-87
2022/01/05 07:24:17;;;;;;;15.02;4.18;;;;;;;-144.19;100.00;76638.28;5078744;28;20048;-87
2022/01/05 07:26:44;;;;;;;20.33;5.82;;;;;;;-144.19;100.00;76650.09;5078782;28;20054;-88
2022/01/05 07:29:16;;;;;;;13.95;5.43;;;;;;;-144.19;100.00;76644.19;5079170;28;20044;-88
2022/01/05 07:31:43;;;;;;;18.80;4.53;;;;;;;-144.19;100.00;76624.50;5079382;28;20058;-89
2022/01/05 07:34:10;;;;;;;12.18;3.83;;;;;;;-144.19;100.00;76618.59;5075971;28;20102;-86
2022/01/05 07:36:37;;;;;;;19.48;4.15;;;;;;;-144.19;100.00;76606.78;5078147;28;20050;-86
2022/01/05 07:39:05;;;;;;;11.95;3.47;;;;;;;-144.19;100.00;76608.75;5096156;28;20129;-89
2022/01/05 07:41:32;;;;;;;13.68;3.95;;;;;;;-144.19;100.00;76604.81;5077308;28;20055;-89
2022/01/05 07:43:58;;;;;;;15.55;3.75;;;;;;;-144.19;100.00;76593.00;5078241;28;20059;-89
2022/01/05 07:46:25;;;;;;;13.18;4.38;;;;;;;-144.19;100.00;76591.03;5077689;28;20051;-89
2022/01/05 07:48:52;;;;;;;15.55;4.57;;;;;;;-144.19;100.00;76593.00;5077563;28;20055;-88
2022/01/05 07:51:18;;;;;;;15.43;3.83;;;;;;;-144.19;100.00;76585.13;5076943;28;20426;-88
2022/01/05 07:53:44;;;;;;;27.33;8.02;;;;;;;-144.19;100.00;76583.16;5078117;28;20059;-89
2022/01/05 07:56:11;;;;;;;24.25;5.30;;;;;;;-144.19;100.00;76583.16;5077942;28;20108;-89
2022/01/05 07:58:38;;;;;;;21.30;5.10;;;;;;;-144.19;100.00;76583.16;5076106;28;20058;-85
2022/01/05 08:01:04;;;;;;;16.30;4.55;;;;;;;-144.19;100.00;76575.28;5076446;28;20282;-86
2022/01/05 08:03:35;;;;;;;14.82;4.38;;;;;;;-144.19;100.00;76563.47;5079216;28;20079;-91
2022/01/05 08:06:20;;;;;;;16.83;5.68;;;;;;;-144.19;100.00;76575.28;5080509;28;20184;-88
2022/01/05 08:08:47;;;;;;;23.42;7.03;;;;;;;-144.19;100.00;76563.47;5076678;28;20051;-88
2022/01/05 08:11:14;;;;;;;19.92;4.90;;;;;;;-144.19;100.00;76579.22;5079012;28;20123;-87
2022/01/05 08:13:40;;;;;;;17.95;4.32;;;;;;;-144.19;100.00;76543.78;5076369;28;20052;-87
2022/01/05 08:16:07;;;;;;;18.83;5.03;;;;;;;-144.19;100.00;76555.59;5095169;28;20044;-87
2022/01/05 08:18:33;;;;;;;18.15;4.88;;;;;;;-144.19;100.00;76545.75;5078371;28;20501;-87
2022/01/05 08:21:00;;;;;;;17.13;5.88;;;;;;;-144.19;100.00;76565.44;5079359;28;20062;-87
2022/01/05 08:23:27;;;;;;;16.58;5.15;;;;;;;-144.19;100.00;76547.72;5075100;28;20051;-88
2022/01/05 08:25:53;;;;;;;16.67;5.18;;;;;;;-144.19;100.00;76559.53;5095021;28;20054;-88
2022/01/05 08:28:20;;;;;;;14.93;5.13;;;;;;;-144.19;100.00;76575.28;5076949;28;20131;-88
2022/01/05 08:30:47;;;;;;;13.13;4.38;;;;;;;-144.19;100.00;76604.81;5078624;28;20056;-85
2022/01/05 08:33:15;;;;;;;15.65;4.07;;;;;;;-144.19;100.00;76589.06;5078801;28;20044;-89
2022/01/05 08:35:43;;;;;;;14.68;5.10;;;;;;;-144.19;100.00;76600.88;5079791;28;20056;-88
2022/01/05 08:38:10;;;;;;;20.25;6.88;;;;;;;-144.19;100.00;76604.81;5078240;28;20052;-89
2022/01/05 08:40:37;;;;;;;20.83;7.63;;;;;;;-144.19;100.00;76614.66;5075886;28;20521;-89
2022/01/05 08:43:05;;;;;;;16.67;5.50;;;;;;;-144.19;100.00;76661.91;5095916;28;20518;-88
2022/01/05 08:45:32;;;;;;;12.88;5.70;;;;;;;-144.19;100.00;76685.53;5076768;28;20048;-88
2022/01/05 08:47:59;;;;;;;18.20;6.10;;;;;;;-144.19;100.00;76758.34;5078958;28;20055;-88
2022/01/05 08:50:28;;;;;;;26.25;8.18;;;;;;;-144.19;100.00;76772.13;5095279;28;20054;-89
2022/01/05 08:52:57;;;;;;;21.20;8.60;;;;;;;-144.19;100.00;76776.06;5074918;28;20143;-89
2022/01/05 08:55:27;;;;;;;19.35;7.60;;;;;;;-144.19;100.00;76762.28;5076291;28;20052;-88
2022/01/05 08:57:54;;;;;;;18.92;9.63;;;;;;;-144.19;100.00;76772.13;5093160;28;20052;-90
2022/01/05 09:00:21;;;;;;;28.48;10.43;;;;;;;-144.19;100.00;76783.94;5077105;28;20059;-86
2022/01/05 09:02:48;;;;;;;26.88;9.63;;;;;;;-144.19;100.00;76776.06;5092837;28;20058;-90
2022/01/05 09:05:21;;;;;;;22.98;10.02;;;;;;;-144.19;100.00;76764.25;5077162;28;20106;-89
2022/01/05 09:07:47;;;;;;;18.75;7.30;;;;;;;-144.19;100.00;76772.13;5076527;28;20048;-87
2022/01/05 09:10:14;;;;;;;22.33;7.93;;;;;;;-144.19;100.00;76760.31;5075723;28;20105;-86
2022/01/05 09:12:40;;;;;;;16.05;5.88;;;;;;;-144.19;100.00;76768.19;5075781;28;20443;-88
2022/01/05 09:15:07;;;;;;;22.55;10.00;;;;;;;-144.19;100.00;76752.44;5075861;28;20051;-88
2022/01/05 09:17:33;;;;;;;22.42;9.77;;;;;;;-144.19;100.00;76728.81;5075754;28;20052;-87
2022/01/05 09:20:00;;;;;;;15.90;7.15;;;;;;;-144.19;100.00;76724.88;5094734;28;20078;-89
2022/01/05 09:22:26;;;;;;;29.58;11.05;;;;;;;-144.19;100.00;76728.81;5076932;28;20071;-88
2022/01/05 09:24:53;;;;;;;32.90;10.75;;;;;;;-144.19;100.00;76699.28;5077167;28;20067;-89
2022/01/05 09:27:20;;;;;;;19.77;9.23;;;;;;;-144.19;100.00;76705.19;5077064;28;20048;-86
2022/01/05 09:29:47;;;;;;;23.02;10.10;;;;;;;-144.19;100.00;76687.47;5076576;28;20048;-89
2022/01/05 09:32:14;;;;;;;21.15;9.43;;;;;;;-144.19;100.00;76675.69;5074488;28;20059;-88
2022/01/05 09:34:42;;;;;;;20.05;7.45;;;;;;;-144.19;100.00;76677.66;5093844;28;20047;-87
2022/01/05 09:37:20;;;;;;;19.80;6.70;;;;;;;-144.19;100.00;76687.47;5079446;28;20050;-89
2022/01/05 09:42:32;;;;;;;17.67;6.68;;;;;;;-144.19;100.00;76654.03;5093377;28;20048;-88
2022/01/05 09:44:59;;;;;;;;;;;;;;;-144.19;100.00;76669.78;5077150;28;20052;-89
2022/01/05 09:48:00;;;;;;;16.08;5.15;;;;;;;-144.19;100.00;76665.84;5094369;28;19931;-87
2022/01/05 09:50:27;;;;;;;17.35;6.78;;;;;;;-144.19;100.00;76681.56;5077269;28;20044;-86
2022/01/05 09:52:55;;;;;;;8.27;4.15;;;;;;;-144.19;100.00;76697.31;5095167;28;20502;-89
2022/01/05 09:55:22;;;;;;;10.60;4.32;;;;;;;-144.19;100.00;76750.47;5077241;28;20440;-86
2022/01/05 09:57:50;;;;;;;9.57;4.68;;;;;;;-144.19;100.00;76803.63;5095061;28;20050;-88
2022/01/05 10:00:18;;;;;;;10.00;5.45;;;;;;;-144.19;100.00;76827.25;5075626;28;20054;-88
2022/01/05 10:02:45;;;;;;;;;;;;;;;-144.19;100.00;76831.19;5093920;28;20048;-83
2022/01/05 10:05:15;;;;;;;10.95;4.55;;;;;;;-144.19;100.00;76827.25;5076656;28;19920;-89
2022/01/05 10:07:42;;;;;;;11.32;4.72;;;;;;;-144.19;100.00;76817.41;5079934;28;20052;-87
2022/01/05 10:10:09;;;;;;;8.77;4.43;;;;;;;-144.19;100.00;76833.16;5097937;28;20087;-86
2022/01/05 10:12:36;;;;;;;;;;;;;;;-144.19;100.00;76811.50;5080531;28;20064;-86
2022/01/05 10:15:03;;;;;;;10.27;4.20;;;;;;;-144.19;100.00;76799.69;5080870;28;19920;-88
2022/01/05 10:17:32;;;;;;;8.82;4.10;;;;;;;-144.19;100.00;76807.56;5098471;28;20051;-87
2022/01/05 10:20:05;;;;;;;8.32;4.47;;;;;;;-144.19;100.00;76801.66;5079985;28;20059;-88
2022/01/05 10:22:33;;;;;;;10.85;4.93;;;;;;;-144.19;100.00;76787.88;5079856;28;20051;-87
2022/01/05 10:25:02;;;;;;;8.32;3.88;;;;;;;-144.19;100.00;76801.66;5080215;28;20098;-86
2022/01/05 10:27:29;;;;;;;9.23;4.05;;;;;;;-144.19;100.00;76795.75;5079274;28;20050;-88
2022/01/05 10:30:10;;;;;;;10.55;4.68;;;;;;;-144.19;100.00;76797.72;5080455;28;20047;-87
2022/01/05 10:32:37;;;;;;;13.43;5.85;;;;;;;-144.19;100.00;76754.41;5081272;28;20054;-89
2022/01/05 10:35:08;;;;;;;12.32;5.13;;;;;;;-144.19;100.00;76740.63;5082115;28;20103;-88
2022/01/05 10:37:37;;;;;;;8.75;5.10;;;;;;;-144.19;100.00;76736.69;5081027;28;20148;-88
2022/01/05 10:40:07;;;;;;;10.82;4.22;;;;;;;-144.19;100.00;76740.63;5079183;28;20044;-85
2022/01/05 10:42:36;;;;;;;11.80;5.50;;;;;;;-144.19;100.00;76732.75;5096323;28;20047;-86
2022/01/05 10:45:05;;;;;;;7.75;4.07;;;;;;;-144.19;100.00;76732.75;5078817;28;20048;-85
2022/01/05 10:47:33;;;;;;;10.15;4.20;;;;;;;-144.19;100.00;76724.88;5095994;28;20044;-84
2022/01/05 10:50:01;;;;;;;9.75;3.50;;;;;;;-144.19;100.00;76728.81;5096114;28;20048;-85
2022/01/05 10:52:30;;;;;;;5.43;3.42;;;;;;;-144.19;100.00;76709.13;5078347;28;20417;-86
2022/01/05 10:55:10;;;;;;;4.97;3.63;;;;;;;-144.19;100.00;76720.94;5079724;28;20048;-85
2022/01/05 10:57:37;;;;;;;6.13;3.40;;;;;;;-144.19;100.00;76701.25;5099483;28;20048;-87
2022/01/05 11:00:06;;;;;;;7.93;3.83;;;;;;;-144.19;100.00;76701.25;5098520;28;20055;-87
2022/01/05 11:02:35;;;;;;;6.50;3.17;;;;;;;-144.19;100.00;76713.06;5079558;28;20056;-85
2022/01/05 11:05:08;;;;;;;3.75;2.55;;;;;;;-144.19;100.00;76717.00;5097716;28;20494;-86
2022/01/05 11:07:39;;;;;;;5.35;3.10;;;;;;;-144.19;100.00;76705.19;5078975;28;20238;-87